sensor_id;sensor_type;location;lat;lon;timestamp;temperature;humidity
17687;DHT22;8962;52.538;13.266;2024-02-14T00:00:29;3.70;99.90
17687;DHT22;8962;52.538;13.266;2024-02-14T00:02:56;3.60;99.90
17687;DHT22;8962;52.538;13.266;2024-02-14T00:05:23;3.70;99.90
17687;DHT22;8962;52.538;13.266;2024-02-14T00:07:50;3.60;99.90
17687;DHT22;8962;52.538;13.266;2024-02-14T00:10:18;3.60;99.90
17687;DHT22;8962;52.538;13.266;2024-02-14T00:12:46;3.50;99.90
17687;DHT22;8962;52.538;13.266;2024-02-14T00:15:14;3.50;99.90
17687;DHT22;8962;52.538;13.266;2024-02-14T00:17:41;3.50;99.90
17687;DHT22;8962;52.538;13.266;2024-02-14T00:20:10;3.40;99.90
17687;DHT22;8962;52.538;13.266;2024-02-14T00:22:37;3.40;99.90
17687;DHT22;8962;52.538;13.266;2024-02-14T00:25:05;3.40;99.90
17687;DHT22;8962;52.538;13.266;2024-02-14T00:27:34;3.50;99.90
17687;DHT22;8962;52.538;13.266;2024-02-14T00:30:01;3.50;99.90
17687;DHT22;8962;52.538;13.266;2024-02-14T00:32:29;3.50;99.90
17687;DHT22;8962;52.538;13.266;2024-02-14T00:34:56;3.50;99.90
17687;DHT22;8962;52.538;13.266;2024-02-14T00:37:23;3.60;99.90
17687;DHT22;8962;52.538;13.266;2024-02-14T00:39:51;3.70;99.90
17687;DHT22;8962;52.538;13.266;2024-02-14T00:42:19;3.70;99.90
17687;DHT22;8962;52.538;13.266;2024-02-14T00:44:48;3.70;99.90
17687;DHT22;8962;52.538;13.266;2024-02-14T00:47:15;3.70;99.90
17687;DHT22;8962;52.538;13.266;2024-02-14T00:49:42;3.70;99.90
17687;DHT22;8962;52.538;13.266;2024-02-14T00:52:09;3.70;99.90
17687;DHT22;8962;52.538;13.266;2024-02-14T00:54:35;3.70;99.90
17687;DHT22;8962;52.538;13.266;2024-02-14T00:57:03;3.70;99.90
17687;DHT22;8962;52.538;13.266;2024-02-14T00:59:30;3.70;99.90
17687;DHT22;8962;52.538;13.266;2024-02-14T01:01:59;3.70;99.90
17687;DHT22;8962;52.538;13.266;2024-02-14T01:04:26;3.70;99.90
17687;DHT22;8962;52.538;13.266;2024-02-14T01:06:53;3.60;99.90
17687;DHT22;8962;52.538;13.266;2024-02-14T01:09:20;3.70;99.90
17687;DHT22;8962;52.538;13.266;2024-02-14T01:11:47;3.70;99.90
17687;DHT22;8962;52.538;13.266;2024-02-14T01:14:15;3.70;99.90
17687;DHT22;8962;52.538;13.266;2024-02-14T01:16:42;3.70;99.90
17687;DHT22;8962;52.538;13.266;2024-02-14T01:19:11;3.60;99.90
17687;DHT22;8962;52.538;13.266;2024-02-14T01:21:39;3.60;99.90
17687;DHT22;8962;52.538;13.266;2024-02-14T01:24:06;3.60;99.90
17687;DHT22;8962;52.538;13.266;2024-02-14T01:26:34;3.60;99.90
17687;DHT22;8962;52.538;13.266;2024-02-14T01:29:01;3.60;99.90
17687;DHT22;8962;52.538;13.266;2024-02-14T01:31:28;3.60;99.90
17687;DHT22;8962;52.538;13.266;2024-02-14T01:33:56;3.60;99.90
17687;DHT22;8962;52.538;13.266;2024-02-14T01:36:26;3.60;99.90
17687;DHT22;8962;52.538;13.266;2024-02-14T01:38:53;3.60;99.90
17687;DHT22;8962;52.538;13.266;2024-02-14T01:41:20;3.60;99.90
17687;DHT22;8962;52.538;13.266;2024-02-14T01:43:49;3.60;99.90
17687;DHT22;8962;52.538;13.266;2024-02-14T01:46:16;3.60;99.90
17687;DHT22;8962;52.538;13.266;2024-02-14T01:48:44;3.60;99.90
17687;DHT22;8962;52.538;13.266;2024-02-14T01:51:12;3.70;99.90
17687;DHT22;8962;52.538;13.266;2024-02-14T01:53:41;3.80;99.90
17687;DHT22;8962;52.538;13.266;2024-02-14T01:56:08;3.80;99.90
17687;DHT22;8962;52.538;13.266;2024-02-14T01:58:36;3.80;99.90
17687;DHT22;8962;52.538;13.266;2024-02-14T02:01:03;3.80;99.90
17687;DHT22;8962;52.538;13.266;2024-02-14T02:03:31;3.90;99.90
17687;DHT22;8962;52.538;13.266;2024-02-14T02:06:01;3.90;99.90
17687;DHT22;8962;52.538;13.266;2024-02-14T02:08:28;3.90;99.90
17687;DHT22;8962;52.538;13.266;2024-02-14T02:10:57;3.90;99.90
17687;DHT22;8962;52.538;13.266;2024-02-14T02:13:24;3.90;99.90
17687;DHT22;8962;52.538;13.266;2024-02-14T02:15:51;3.90;99.90
17687;DHT22;8962;52.538;13.266;2024-02-14T02:18:19;3.90;99.90
17687;DHT22;8962;52.538;13.266;2024-02-14T02:20:46;3.90;99.90
17687;DHT22;8962;52.538;13.266;2024-02-14T02:23:16;3.90;99.90
17687;DHT22;8962;52.538;13.266;2024-02-14T02:25:43;3.90;99.90
17687;DHT22;8962;52.538;13.266;2024-02-14T02:28:10;3.90;99.90
17687;DHT22;8962;52.538;13.266;2024-02-14T02:30:38;3.90;99.90
17687;DHT22;8962;52.538;13.266;2024-02-14T02:33:06;4.00;99.90
17687;DHT22;8962;52.538;13.266;2024-02-14T02:35:33;4.00;99.90
17687;DHT22;8962;52.538;13.266;2024-02-14T02:38:01;4.00;99.90
17687;DHT22;8962;52.538;13.266;2024-02-14T02:40:30;4.00;99.90
17687;DHT22;8962;52.538;13.266;2024-02-14T02:42:57;4.00;99.90
17687;DHT22;8962;52.538;13.266;2024-02-14T02:45:24;4.00;99.90
17687;DHT22;8962;52.538;13.266;2024-02-14T02:47:51;4.00;99.90
17687;DHT22;8962;52.538;13.266;2024-02-14T02:50:19;4.00;99.90
17687;DHT22;8962;52.538;13.266;2024-02-14T02:52:47;4.00;99.90
17687;DHT22;8962;52.538;13.266;2024-02-14T02:55:14;4.00;99.90
17687;DHT22;8962;52.538;13.266;2024-02-14T02:57:44;3.90;99.90
17687;DHT22;8962;52.538;13.266;2024-02-14T03:00:12;3.90;99.90
17687;DHT22;8962;52.538;13.266;2024-02-14T03:02:39;3.90;99.90
17687;DHT22;8962;52.538;13.266;2024-02-14T03:05:10;3.90;99.90
17687;DHT22;8962;52.538;13.266;2024-02-14T03:07:43;3.90;99.90
17687;DHT22;8962;52.538;13.266;2024-02-14T03:10:14;4.00;99.90
17687;DHT22;8962;52.538;13.266;2024-02-14T03:12:46;4.00;99.90
17687;DHT22;8962;52.538;13.266;2024-02-14T03:15:13;3.90;99.90
17687;DHT22;8962;52.538;13.266;2024-02-14T03:17:42;3.90;99.90
17687;DHT22;8962;52.538;13.266;2024-02-14T03:20:10;3.90;99.90
17687;DHT22;8962;52.538;13.266;2024-02-14T03:22:39;4.00;99.90
17687;DHT22;8962;52.538;13.266;2024-02-14T03:25:12;4.00;99.90
17687;DHT22;8962;52.538;13.266;2024-02-14T03:27:43;4.00;99.90
17687;DHT22;8962;52.538;13.266;2024-02-14T03:30:14;4.00;99.90
17687;DHT22;8962;52.538;13.266;2024-02-14T03:32:42;4.10;99.90
17687;DHT22;8962;52.538;13.266;2024-02-14T03:35:09;4.10;99.90
17687;DHT22;8962;52.538;13.266;2024-02-14T03:37:38;4.10;99.90
17687;DHT22;8962;52.538;13.266;2024-02-14T03:40:07;4.10;99.90
17687;DHT22;8962;52.538;13.266;2024-02-14T03:42:35;4.10;99.90
17687;DHT22;8962;52.538;13.266;2024-02-14T03:45:06;4.20;99.90
17687;DHT22;8962;52.538;13.266;2024-02-14T03:47:35;4.20;99.90
17687;DHT22;8962;52.538;13.266;2024-02-14T03:50:06;4.20;99.90
17687;DHT22;8962;52.538;13.266;2024-02-14T03:52:33;4.20;99.90
17687;DHT22;8962;52.538;13.266;2024-02-14T03:55:01;4.20;99.90
17687;DHT22;8962;52.538;13.266;2024-02-14T03:57:29;4.20;99.90
17687;DHT22;8962;52.538;13.266;2024-02-14T04:00:00;4.30;99.90
17687;DHT22;8962;52.538;13.266;2024-02-14T04:02:38;4.30;99.90
17687;DHT22;8962;52.538;13.266;2024-02-14T04:05:06;4.30;99.90
17687;DHT22;8962;52.538;13.266;2024-02-14T04:07:33;4.30;99.90
17687;DHT22;8962;52.538;13.266;2024-02-14T04:10:02;4.20;99.90
17687;DHT22;8962;52.538;13.266;2024-02-14T04:12:29;4.20;99.90
17687;DHT22;8962;52.538;13.266;2024-02-14T04:14:56;4.30;99.90
17687;DHT22;8962;52.538;13.266;2024-02-14T04:17:23;4.30;99.90
17687;DHT22;8962;52.538;13.266;2024-02-14T04:19:52;4.30;99.90
17687;DHT22;8962;52.538;13.266;2024-02-14T04:22:19;4.40;99.90
17687;DHT22;8962;52.538;13.266;2024-02-14T04:24:46;4.40;99.90
17687;DHT22;8962;52.538;13.266;2024-02-14T04:27:12;4.40;99.90
17687;DHT22;8962;52.538;13.266;2024-02-14T04:29:45;4.30;99.90
17687;DHT22;8962;52.538;13.266;2024-02-14T04:32:13;4.30;99.90
17687;DHT22;8962;52.538;13.266;2024-02-14T04:34:41;4.30;99.90
17687;DHT22;8962;52.538;13.266;2024-02-14T04:37:17;4.30;99.90
17687;DHT22;8962;52.538;13.266;2024-02-14T04:39:44;4.30;99.90
17687;DHT22;8962;52.538;13.266;2024-02-14T04:42:12;4.30;99.90
17687;DHT22;8962;52.538;13.266;2024-02-14T04:44:39;4.30;99.90
17687;DHT22;8962;52.538;13.266;2024-02-14T04:47:06;4.30;99.90
17687;DHT22;8962;52.538;13.266;2024-02-14T04:49:35;4.30;99.90
17687;DHT22;8962;52.538;13.266;2024-02-14T04:52:02;4.40;99.90
17687;DHT22;8962;52.538;13.266;2024-02-14T04:54:31;4.40;99.90
17687;DHT22;8962;52.538;13.266;2024-02-14T04:56:58;4.40;99.90
17687;DHT22;8962;52.538;13.266;2024-02-14T04:59:26;4.50;99.90
17687;DHT22;8962;52.538;13.266;2024-02-14T05:01:53;4.40;99.90
17687;DHT22;8962;52.538;13.266;2024-02-14T05:04:20;4.50;99.90
17687;DHT22;8962;52.538;13.266;2024-02-14T05:06:49;4.50;99.90
17687;DHT22;8962;52.538;13.266;2024-02-14T05:09:17;4.50;99.90
17687;DHT22;8962;52.538;13.266;2024-02-14T05:11:45;4.60;99.90
17687;DHT22;8962;52.538;13.266;2024-02-14T05:14:12;4.50;99.90
17687;DHT22;8962;52.538;13.266;2024-02-14T05:16:39;4.60;99.90
17687;DHT22;8962;52.538;13.266;2024-02-14T05:19:07;4.60;99.90
17687;DHT22;8962;52.538;13.266;2024-02-14T05:21:35;4.60;99.90
17687;DHT22;8962;52.538;13.266;2024-02-14T05:24:02;4.60;99.90
17687;DHT22;8962;52.538;13.266;2024-02-14T05:26:30;4.60;99.90
17687;DHT22;8962;52.538;13.266;2024-02-14T05:28:59;4.70;99.90
17687;DHT22;8962;52.538;13.266;2024-02-14T05:31:42;4.70;99.90
17687;DHT22;8962;52.538;13.266;2024-02-14T05:34:10;4.70;99.90
17687;DHT22;8962;52.538;13.266;2024-02-14T05:36:37;4.80;99.90
17687;DHT22;8962;52.538;13.266;2024-02-14T05:39:04;4.80;99.90
17687;DHT22;8962;52.538;13.266;2024-02-14T05:41:33;4.80;99.90
17687;DHT22;8962;52.538;13.266;2024-02-14T05:44:02;4.80;99.90
17687;DHT22;8962;52.538;13.266;2024-02-14T05:46:30;4.70;99.90
17687;DHT22;8962;52.538;13.266;2024-02-14T05:48:57;4.80;99.90
17687;DHT22;8962;52.538;13.266;2024-02-14T05:51:24;4.70;99.90
17687;DHT22;8962;52.538;13.266;2024-02-14T05:53:51;4.80;99.90
17687;DHT22;8962;52.538;13.266;2024-02-14T05:56:19;4.70;99.90
17687;DHT22;8962;52.538;13.266;2024-02-14T05:58:46;4.70;99.90
17687;DHT22;8962;52.538;13.266;2024-02-14T06:01:17;4.70;99.90
17687;DHT22;8962;52.538;13.266;2024-02-14T06:03:44;4.70;99.90
17687;DHT22;8962;52.538;13.266;2024-02-14T06:06:11;4.70;99.90
17687;DHT22;8962;52.538;13.266;2024-02-14T06:08:38;4.70;99.90
17687;DHT22;8962;52.538;13.266;2024-02-14T06:11:08;4.80;99.90
17687;DHT22;8962;52.538;13.266;2024-02-14T06:13:35;4.80;99.90
17687;DHT22;8962;52.538;13.266;2024-02-14T06:16:02;4.80;99.90
17687;DHT22;8962;52.538;13.266;2024-02-14T06:18:31;4.80;99.90
17687;DHT22;8962;52.538;13.266;2024-02-14T06:20:58;4.80;99.90
17687;DHT22;8962;52.538;13.266;2024-02-14T06:23:26;4.80;99.90
17687;DHT22;8962;52.538;13.266;2024-02-14T06:25:53;4.80;99.90
17687;DHT22;8962;52.538;13.266;2024-02-14T06:28:20;4.80;99.90
17687;DHT22;8962;52.538;13.266;2024-02-14T06:30:47;4.80;99.90
17687;DHT22;8962;52.538;13.266;2024-02-14T06:33:15;4.90;99.90
17687;DHT22;8962;52.538;13.266;2024-02-14T06:35:44;4.90;99.90
17687;DHT22;8962;52.538;13.266;2024-02-14T06:38:11;4.90;99.90
17687;DHT22;8962;52.538;13.266;2024-02-14T06:40:41;5.00;99.90
17687;DHT22;8962;52.538;13.266;2024-02-14T06:43:10;5.00;99.90
17687;DHT22;8962;52.538;13.266;2024-02-14T06:45:40;5.00;99.90
17687;DHT22;8962;52.538;13.266;2024-02-14T06:48:07;5.10;99.90
17687;DHT22;8962;52.538;13.266;2024-02-14T06:50:35;5.10;99.90
17687;DHT22;8962;52.538;13.266;2024-02-14T06:53:04;5.10;99.90
17687;DHT22;8962;52.538;13.266;2024-02-14T06:55:32;5.20;99.90
17687;DHT22;8962;52.538;13.266;2024-02-14T06:58:00;5.20;99.90
17687;DHT22;8962;52.538;13.266;2024-02-14T07:00:26;5.30;99.90
17687;DHT22;8962;52.538;13.266;2024-02-14T07:02:54;5.30;99.90
17687;DHT22;8962;52.538;13.266;2024-02-14T07:05:21;5.30;99.90
17687;DHT22;8962;52.538;13.266;2024-02-14T07:07:48;5.30;99.90
17687;DHT22;8962;52.538;13.266;2024-02-14T07:10:17;5.40;99.90
17687;DHT22;8962;52.538;13.266;2024-02-14T07:12:45;5.40;99.90
17687;DHT22;8962;52.538;13.266;2024-02-14T07:15:12;5.50;99.90
17687;DHT22;8962;52.538;13.266;2024-02-14T07:17:40;5.50;99.90
17687;DHT22;8962;52.538;13.266;2024-02-14T07:20:07;5.50;99.90
17687;DHT22;8962;52.538;13.266;2024-02-14T07:22:35;5.60;99.90
17687;DHT22;8962;52.538;13.266;2024-02-14T07:25:02;5.60;99.90
17687;DHT22;8962;52.538;13.266;2024-02-14T07:27:32;5.70;99.90
17687;DHT22;8962;52.538;13.266;2024-02-14T07:29:59;5.70;99.90
17687;DHT22;8962;52.538;13.266;2024-02-14T07:32:26;5.80;99.90
17687;DHT22;8962;52.538;13.266;2024-02-14T07:34:53;5.80;99.90
17687;DHT22;8962;52.538;13.266;2024-02-14T07:37:20;5.80;99.90
17687;DHT22;8962;52.538;13.266;2024-02-14T07:39:50;5.80;99.90
17687;DHT22;8962;52.538;13.266;2024-02-14T07:42:17;5.90;99.90
17687;DHT22;8962;52.538;13.266;2024-02-14T07:44:46;5.90;99.90
17687;DHT22;8962;52.538;13.266;2024-02-14T07:47:13;6.00;99.90
17687;DHT22;8962;52.538;13.266;2024-02-14T07:49:41;6.10;99.90
17687;DHT22;8962;52.538;13.266;2024-02-14T07:52:08;6.00;99.90
17687;DHT22;8962;52.538;13.266;2024-02-14T07:54:35;6.10;99.90
17687;DHT22;8962;52.538;13.266;2024-02-14T07:57:03;6.10;99.90
17687;DHT22;8962;52.538;13.266;2024-02-14T07:59:30;6.10;99.90
17687;DHT22;8962;52.538;13.266;2024-02-14T08:01:59;6.10;99.90
17687;DHT22;8962;52.538;13.266;2024-02-14T08:04:26;6.20;99.90
17687;DHT22;8962;52.538;13.266;2024-02-14T08:06:54;6.20;99.90
17687;DHT22;8962;52.538;13.266;2024-02-14T08:09:21;6.40;99.90
17687;DHT22;8962;52.538;13.266;2024-02-14T08:11:48;6.40;99.90
17687;DHT22;8962;52.538;13.266;2024-02-14T08:14:18;6.40;99.90
17687;DHT22;8962;52.538;13.266;2024-02-14T08:16:45;6.50;99.90
17687;DHT22;8962;52.538;13.266;2024-02-14T08:19:14;6.60;99.90
17687;DHT22;8962;52.538;13.266;2024-02-14T08:21:41;6.60;99.90
17687;DHT22;8962;52.538;13.266;2024-02-14T08:24:08;6.70;99.90
17687;DHT22;8962;52.538;13.266;2024-02-14T08:26:37;6.80;99.90
17687;DHT22;8962;52.538;13.266;2024-02-14T08:29:04;6.90;99.90
17687;DHT22;8962;52.538;13.266;2024-02-14T08:31:31;7.00;99.90
17687;DHT22;8962;52.538;13.266;2024-02-14T08:33:59;7.00;99.90
17687;DHT22;8962;52.538;13.266;2024-02-14T08:36:27;7.00;99.90
17687;DHT22;8962;52.538;13.266;2024-02-14T08:38:55;7.10;99.90
17687;DHT22;8962;52.538;13.266;2024-02-14T08:41:22;7.20;99.90
17687;DHT22;8962;52.538;13.266;2024-02-14T08:43:50;7.20;99.90
17687;DHT22;8962;52.538;13.266;2024-02-14T08:46:17;7.20;99.90
17687;DHT22;8962;52.538;13.266;2024-02-14T08:48:44;7.30;99.90
17687;DHT22;8962;52.538;13.266;2024-02-14T08:51:12;7.40;99.90
17687;DHT22;8962;52.538;13.266;2024-02-14T08:53:42;7.30;99.90
17687;DHT22;8962;52.538;13.266;2024-02-14T08:56:10;7.30;99.90
17687;DHT22;8962;52.538;13.266;2024-02-14T08:58:37;7.40;99.90
17687;DHT22;8962;52.538;13.266;2024-02-14T09:01:05;7.30;99.90
17687;DHT22;8962;52.538;13.266;2024-02-14T09:03:33;7.30;99.90
17687;DHT22;8962;52.538;13.266;2024-02-14T09:06:00;7.40;99.90
17687;DHT22;8962;52.538;13.266;2024-02-14T09:08:29;7.50;99.90
17687;DHT22;8962;52.538;13.266;2024-02-14T09:10:58;7.40;99.90
17687;DHT22;8962;52.538;13.266;2024-02-14T09:13:26;7.30;99.90
17687;DHT22;8962;52.538;13.266;2024-02-14T09:15:55;7.20;99.90
17687;DHT22;8962;52.538;13.266;2024-02-14T09:18:22;7.20;99.90
17687;DHT22;8962;52.538;13.266;2024-02-14T09:20:51;7.20;99.90
17687;DHT22;8962;52.538;13.266;2024-02-14T09:23:18;7.20;99.90
17687;DHT22;8962;52.538;13.266;2024-02-14T09:25:48;7.20;99.90
17687;DHT22;8962;52.538;13.266;2024-02-14T09:28:17;7.30;99.90
17687;DHT22;8962;52.538;13.266;2024-02-14T09:30:44;7.20;99.90
17687;DHT22;8962;52.538;13.266;2024-02-14T09:33:11;7.20;99.90
17687;DHT22;8962;52.538;13.266;2024-02-14T09:35:38;7.20;99.90
17687;DHT22;8962;52.538;13.266;2024-02-14T09:38:10;7.30;99.90
17687;DHT22;8962;52.538;13.266;2024-02-14T09:40:38;7.40;99.90
17687;DHT22;8962;52.538;13.266;2024-02-14T09:43:10;7.30;99.90
17687;DHT22;8962;52.538;13.266;2024-02-14T09:45:42;7.30;99.90
17687;DHT22;8962;52.538;13.266;2024-02-14T09:48:12;7.30;99.90
17687;DHT22;8962;52.538;13.266;2024-02-14T09:50:41;7.30;99.90
17687;DHT22;8962;52.538;13.266;2024-02-14T09:53:10;7.20;99.90
17687;DHT22;8962;52.538;13.266;2024-02-14T09:55:38;7.20;99.90
17687;DHT22;8962;52.538;13.266;2024-02-14T09:58:06;7.30;99.90
17687;DHT22;8962;52.538;13.266;2024-02-14T10:00:34;7.50;99.90
17687;DHT22;8962;52.538;13.266;2024-02-14T10:03:03;7.50;99.90
17687;DHT22;8962;52.538;13.266;2024-02-14T10:05:31;7.50;99.90
17687;DHT22;8962;52.538;13.266;2024-02-14T10:07:58;7.40;99.90
17687;DHT22;8962;52.538;13.266;2024-02-14T10:10:27;7.60;99.90
17687;DHT22;8962;52.538;13.266;2024-02-14T10:12:55;7.60;99.90
17687;DHT22;8962;52.538;13.266;2024-02-14T10:15:22;7.60;99.90
17687;DHT22;8962;52.538;13.266;2024-02-14T10:17:49;7.70;99.90
17687;DHT22;8962;52.538;13.266;2024-02-14T10:20:18;7.60;99.90
17687;DHT22;8962;52.538;13.266;2024-02-14T10:22:47;7.60;99.90
17687;DHT22;8962;52.538;13.266;2024-02-14T10:25:14;7.50;99.90
17687;DHT22;8962;52.538;13.266;2024-02-14T10:27:41;7.60;99.90
17687;DHT22;8962;52.538;13.266;2024-02-14T10:30:08;7.70;99.90
17687;DHT22;8962;52.538;13.266;2024-02-14T10:32:36;7.70;99.90
17687;DHT22;8962;52.538;13.266;2024-02-14T10:35:05;7.80;99.90
17687;DHT22;8962;52.538;13.266;2024-02-14T10:37:37;7.70;99.90
17687;DHT22;8962;52.538;13.266;2024-02-14T10:40:05;7.70;99.90
17687;DHT22;8962;52.538;13.266;2024-02-14T10:42:34;7.60;99.90
17687;DHT22;8962;52.538;13.266;2024-02-14T10:45:04;7.80;99.90
17687;DHT22;8962;52.538;13.266;2024-02-14T10:47:34;7.80;99.90
17687;DHT22;8962;52.538;13.266;2024-02-14T10:50:04;8.20;99.90
17687;DHT22;8962;52.538;13.266;2024-02-14T10:52:34;8.10;99.90
17687;DHT22;8962;52.538;13.266;2024-02-14T10:55:04;8.20;99.90
17687;DHT22;8962;52.538;13.266;2024-02-14T10:57:32;8.30;99.90
17687;DHT22;8962;52.538;13.266;2024-02-14T11:00:02;8.30;99.90
17687;DHT22;8962;52.538;13.266;2024-02-14T11:02:30;8.30;99.90
17687;DHT22;8962;52.538;13.266;2024-02-14T11:04:58;8.40;99.90
17687;DHT22;8962;52.538;13.266;2024-02-14T11:07:28;8.40;99.90
17687;DHT22;8962;52.538;13.266;2024-02-14T11:10:04;8.50;99.90
17687;DHT22;8962;52.538;13.266;2024-02-14T11:12:33;8.40;99.90
17687;DHT22;8962;52.538;13.266;2024-02-14T11:15:09;8.30;99.90
17687;DHT22;8962;52.538;13.266;2024-02-14T11:17:37;8.30;99.90
17687;DHT22;8962;52.538;13.266;2024-02-14T11:20:16;8.20;99.90
17687;DHT22;8962;52.538;13.266;2024-02-14T11:22:56;8.10;99.90
17687;DHT22;8962;52.538;13.266;2024-02-14T11:25:33;8.20;99.90
17687;DHT22;8962;52.538;13.266;2024-02-14T11:28:11;8.30;99.90
17687;DHT22;8962;52.538;13.266;2024-02-14T11:30:43;8.30;99.90
17687;DHT22;8962;52.538;13.266;2024-02-14T11:33:14;8.40;99.90
17687;DHT22;8962;52.538;13.266;2024-02-14T11:35:42;8.40;99.90
17687;DHT22;8962;52.538;13.266;2024-02-14T11:38:10;8.40;99.90
17687;DHT22;8962;52.538;13.266;2024-02-14T11:40:38;8.50;99.90
17687;DHT22;8962;52.538;13.266;2024-02-14T11:43:10;8.50;99.90
17687;DHT22;8962;52.538;13.266;2024-02-14T11:45:38;8.50;99.90
17687;DHT22;8962;52.538;13.266;2024-02-14T11:48:09;8.60;99.90
17687;DHT22;8962;52.538;13.266;2024-02-14T11:53:04;8.70;99.90
17687;DHT22;8962;52.538;13.266;2024-02-14T11:55:35;8.60;99.90
17687;DHT22;8962;52.538;13.266;2024-02-14T11:58:06;8.70;99.90
17687;DHT22;8962;52.538;13.266;2024-02-14T12:00:34;8.60;99.90
17687;DHT22;8962;52.538;13.266;2024-02-14T12:03:05;8.40;99.90
17687;DHT22;8962;52.538;13.266;2024-02-14T12:05:33;8.50;99.90
17687;DHT22;8962;52.538;13.266;2024-02-14T12:08:01;8.50;99.90
17687;DHT22;8962;52.538;13.266;2024-02-14T12:10:31;8.40;99.90
17687;DHT22;8962;52.538;13.266;2024-02-14T12:13:05;8.30;99.90
17687;DHT22;8962;52.538;13.266;2024-02-14T12:15:39;8.50;99.90
17687;DHT22;8962;52.538;13.266;2024-02-14T12:18:07;8.50;99.90
17687;DHT22;8962;52.538;13.266;2024-02-14T12:20:35;8.50;99.90
17687;DHT22;8962;52.538;13.266;2024-02-14T12:23:03;8.60;99.90
17687;DHT22;8962;52.538;13.266;2024-02-14T12:25:31;8.70;99.90
17687;DHT22;8962;52.538;13.266;2024-02-14T12:27:58;8.80;99.90
17687;DHT22;8962;52.538;13.266;2024-02-14T12:30:42;8.70;99.90
17687;DHT22;8962;52.538;13.266;2024-02-14T12:33:15;8.70;99.90
17687;DHT22;8962;52.538;13.266;2024-02-14T12:35:43;8.90;99.90
17687;DHT22;8962;52.538;13.266;2024-02-14T12:38:11;8.90;99.90
17687;DHT22;8962;52.538;13.266;2024-02-14T12:40:40;8.90;99.90
17687;DHT22;8962;52.538;13.266;2024-02-14T12:43:08;8.90;99.90
17687;DHT22;8962;52.538;13.266;2024-02-14T12:45:38;9.10;99.90
17687;DHT22;8962;52.538;13.266;2024-02-14T12:48:06;9.20;99.90
17687;DHT22;8962;52.538;13.266;2024-02-14T12:50:34;9.20;99.90
17687;DHT22;8962;52.538;13.266;2024-02-14T12:53:02;9.30;99.90
17687;DHT22;8962;52.538;13.266;2024-02-14T12:55:29;9.20;99.90
17687;DHT22;8962;52.538;13.266;2024-02-14T12:57:56;9.20;99.90
17687;DHT22;8962;52.538;13.266;2024-02-14T13:00:24;9.30;99.90
17687;DHT22;8962;52.538;13.266;2024-02-14T13:02:53;9.30;99.90
17687;DHT22;8962;52.538;13.266;2024-02-14T13:05:20;9.20;99.90
17687;DHT22;8962;52.538;13.266;2024-02-14T13:07:48;9.20;99.90
17687;DHT22;8962;52.538;13.266;2024-02-14T13:10:16;9.10;99.90
17687;DHT22;8962;52.538;13.266;2024-02-14T13:12:44;9.00;99.90
17687;DHT22;8962;52.538;13.266;2024-02-14T13:15:12;9.10;99.90
17687;DHT22;8962;52.538;13.266;2024-02-14T13:17:39;9.00;99.90
17687;DHT22;8962;52.538;13.266;2024-02-14T13:20:09;9.00;99.90
17687;DHT22;8962;52.538;13.266;2024-02-14T13:22:36;9.00;99.90
17687;DHT22;8962;52.538;13.266;2024-02-14T13:25:06;9.00;99.90
17687;DHT22;8962;52.538;13.266;2024-02-14T13:27:35;9.00;99.90
17687;DHT22;8962;52.538;13.266;2024-02-14T13:30:02;9.00;99.90
17687;DHT22;8962;52.538;13.266;2024-02-14T13:32:30;9.00;99.90
17687;DHT22;8962;52.538;13.266;2024-02-14T13:34:57;9.00;99.90
17687;DHT22;8962;52.538;13.266;2024-02-14T13:37:26;9.00;99.90
17687;DHT22;8962;52.538;13.266;2024-02-14T13:39:53;9.10;99.90
17687;DHT22;8962;52.538;13.266;2024-02-14T13:42:23;9.00;99.90
17687;DHT22;8962;52.538;13.266;2024-02-14T13:44:50;9.10;99.90
17687;DHT22;8962;52.538;13.266;2024-02-14T13:47:19;9.00;99.90
17687;DHT22;8962;52.538;13.266;2024-02-14T13:49:47;9.00;99.90
17687;DHT22;8962;52.538;13.266;2024-02-14T13:52:14;9.00;99.90
17687;DHT22;8962;52.538;13.266;2024-02-14T13:54:45;9.10;99.90
17687;DHT22;8962;52.538;13.266;2024-02-14T13:57:12;9.10;99.90
17687;DHT22;8962;52.538;13.266;2024-02-14T13:59:39;9.10;99.90
17687;DHT22;8962;52.538;13.266;2024-02-14T14:02:06;9.00;99.90
17687;DHT22;8962;52.538;13.266;2024-02-14T14:04:35;9.10;99.90
17687;DHT22;8962;52.538;13.266;2024-02-14T14:07:02;9.20;99.90
17687;DHT22;8962;52.538;13.266;2024-02-14T14:09:30;9.10;99.90
17687;DHT22;8962;52.538;13.266;2024-02-14T14:11:59;9.20;99.90
17687;DHT22;8962;52.538;13.266;2024-02-14T14:14:27;9.20;99.90
17687;DHT22;8962;52.538;13.266;2024-02-14T14:16:55;9.20;99.90
17687;DHT22;8962;52.538;13.266;2024-02-14T14:19:22;9.20;99.90
17687;DHT22;8962;52.538;13.266;2024-02-14T14:21:49;9.20;99.90
17687;DHT22;8962;52.538;13.266;2024-02-14T14:24:17;9.30;99.90
17687;DHT22;8962;52.538;13.266;2024-02-14T14:26:46;9.30;99.90
17687;DHT22;8962;52.538;13.266;2024-02-14T14:29:15;9.30;99.90
17687;DHT22;8962;52.538;13.266;2024-02-14T14:31:42;9.30;99.90
17687;DHT22;8962;52.538;13.266;2024-02-14T14:34:09;9.40;99.90
17687;DHT22;8962;52.538;13.266;2024-02-14T14:36:36;9.50;99.90
17687;DHT22;8962;52.538;13.266;2024-02-14T14:39:03;9.40;99.90
17687;DHT22;8962;52.538;13.266;2024-02-14T14:41:30;9.40;99.90
17687;DHT22;8962;52.538;13.266;2024-02-14T14:43:57;9.50;99.90
17687;DHT22;8962;52.538;13.266;2024-02-14T14:46:27;9.50;99.90
17687;DHT22;8962;52.538;13.266;2024-02-14T14:48:58;9.50;99.90
17687;DHT22;8962;52.538;13.266;2024-02-14T14:51:26;9.50;99.90
17687;DHT22;8962;52.538;13.266;2024-02-14T14:53:53;9.60;99.90
17687;DHT22;8962;52.538;13.266;2024-02-14T14:56:21;9.60;99.90
17687;DHT22;8962;52.538;13.266;2024-02-14T14:58:51;9.60;99.90
17687;DHT22;8962;52.538;13.266;2024-02-14T15:01:19;9.60;99.90
17687;DHT22;8962;52.538;13.266;2024-02-14T15:03:47;9.70;99.90
17687;DHT22;8962;52.538;13.266;2024-02-14T15:06:14;9.70;99.90
17687;DHT22;8962;52.538;13.266;2024-02-14T15:08:42;9.70;99.90
17687;DHT22;8962;52.538;13.266;2024-02-14T15:11:09;9.80;99.90
17687;DHT22;8962;52.538;13.266;2024-02-14T15:13:40;9.90;99.90
17687;DHT22;8962;52.538;13.266;2024-02-14T15:16:08;9.80;99.90
17687;DHT22;8962;52.538;13.266;2024-02-14T15:18:35;9.90;99.90
17687;DHT22;8962;52.538;13.266;2024-02-14T15:21:05;9.90;99.90
17687;DHT22;8962;52.538;13.266;2024-02-14T15:23:33;9.90;99.90
17687;DHT22;8962;52.538;13.266;2024-02-14T15:26:01;9.90;99.90
17687;DHT22;8962;52.538;13.266;2024-02-14T15:28:30;9.90;99.90
17687;DHT22;8962;52.538;13.266;2024-02-14T15:30:57;9.90;99.90
17687;DHT22;8962;52.538;13.266;2024-02-14T15:33:42;9.90;99.90
17687;DHT22;8962;52.538;13.266;2024-02-14T15:36:10;9.90;99.90
17687;DHT22;8962;52.538;13.266;2024-02-14T15:38:41;9.90;99.90
17687;DHT22;8962;52.538;13.266;2024-02-14T15:41:08;9.90;99.90
17687;DHT22;8962;52.538;13.266;2024-02-14T15:43:35;10.00;99.90
17687;DHT22;8962;52.538;13.266;2024-02-14T15:46:02;9.90;99.90
17687;DHT22;8962;52.538;13.266;2024-02-14T15:48:30;9.90;99.90
17687;DHT22;8962;52.538;13.266;2024-02-14T15:50:57;9.90;99.90
17687;DHT22;8962;52.538;13.266;2024-02-14T15:53:26;9.90;99.90